sensor_id;sensor_type;location;lat;lon;timestamp;temperature;humidity
74384;DHT22;62824;52.994;-3.936;2022-11-24T00:01:23;8.60;99.90
74384;DHT22;62824;52.994;-3.936;2022-11-24T00:06:19;8.70;99.90
74384;DHT22;62824;52.994;-3.936;2022-11-24T00:08:46;8.60;99.90
74384;DHT22;62824;52.994;-3.936;2022-11-24T00:11:14;8.60;99.90
74384;DHT22;62824;52.994;-3.936;2022-11-24T00:13:41;8.60;99.90
74384;DHT22;62824;52.994;-3.936;2022-11-24T00:16:09;8.60;99.90
74384;DHT22;62824;52.994;-3.936;2022-11-24T00:18:35;8.60;99.90
74384;DHT22;62824;52.994;-3.936;2022-11-24T00:21:01;8.60;99.90
74384;DHT22;62824;52.994;-3.936;2022-11-24T00:23:27;8.70;99.90
74384;DHT22;62824;52.994;-3.936;2022-11-24T00:25:53;8.60;99.90
74384;DHT22;62824;52.994;-3.936;2022-11-24T00:28:18;8.70;99.90
74384;DHT22;62824;52.994;-3.936;2022-11-24T00:30:44;8.70;99.90
74384;DHT22;62824;52.994;-3.936;2022-11-24T00:33:10;8.70;99.90
74384;DHT22;62824;52.994;-3.936;2022-11-24T00:35:36;8.70;99.90
74384;DHT22;62824;52.994;-3.936;2022-11-24T00:38:02;8.70;99.90
74384;DHT22;62824;52.994;-3.936;2022-11-24T00:40:27;8.70;99.90
74384;DHT22;62824;52.994;-3.936;2022-11-24T00:42:53;8.70;99.90
74384;DHT22;62824;52.994;-3.936;2022-11-24T00:45:19;8.70;99.90
74384;DHT22;62824;52.994;-3.936;2022-11-24T00:47:44;8.70;99.90
74384;DHT22;62824;52.994;-3.936;2022-11-24T00:50:10;8.70;99.90
74384;DHT22;62824;52.994;-3.936;2022-11-24T00:52:36;8.70;99.90
74384;DHT22;62824;52.994;-3.936;2022-11-24T00:55:02;8.70;99.90
74384;DHT22;62824;52.994;-3.936;2022-11-24T00:57:27;8.70;99.90
74384;DHT22;62824;52.994;-3.936;2022-11-24T00:59:53;8.70;99.90
74384;DHT22;62824;52.994;-3.936;2022-11-24T01:02:19;8.70;99.90
74384;DHT22;62824;52.994;-3.936;2022-11-24T01:04:44;8.70;99.90
74384;DHT22;62824;52.994;-3.936;2022-11-24T01:07:10;8.70;99.90
74384;DHT22;62824;52.994;-3.936;2022-11-24T01:09:36;8.70;99.90
74384;DHT22;62824;52.994;-3.936;2022-11-24T01:12:02;8.70;99.90
74384;DHT22;62824;52.994;-3.936;2022-11-24T01:14:29;8.70;99.90
74384;DHT22;62824;52.994;-3.936;2022-11-24T01:16:55;8.70;99.90
74384;DHT22;62824;52.994;-3.936;2022-11-24T01:19:22;8.70;99.90
74384;DHT22;62824;52.994;-3.936;2022-11-24T01:21:48;8.60;99.90
74384;DHT22;62824;52.994;-3.936;2022-11-24T01:24:14;8.70;99.90
74384;DHT22;62824;52.994;-3.936;2022-11-24T01:26:40;8.70;99.90
74384;DHT22;62824;52.994;-3.936;2022-11-24T01:29:08;8.70;99.90
74384;DHT22;62824;52.994;-3.936;2022-11-24T01:31:34;8.70;99.90
74384;DHT22;62824;52.994;-3.936;2022-11-24T01:34:01;8.70;99.90
74384;DHT22;62824;52.994;-3.936;2022-11-24T01:36:44;8.70;99.90
74384;DHT22;62824;52.994;-3.936;2022-11-24T01:39:11;8.80;99.90
74384;DHT22;62824;52.994;-3.936;2022-11-24T01:41:37;8.80;99.90
74384;DHT22;62824;52.994;-3.936;2022-11-24T01:44:24;8.80;99.90
74384;DHT22;62824;52.994;-3.936;2022-11-24T01:46:56;8.80;99.90
74384;DHT22;62824;52.994;-3.936;2022-11-24T01:49:39;8.80;99.90
74384;DHT22;62824;52.994;-3.936;2022-11-24T01:52:10;8.80;99.90
74384;DHT22;62824;52.994;-3.936;2022-11-24T01:54:42;8.90;99.90
74384;DHT22;62824;52.994;-3.936;2022-11-24T01:57:16;8.80;99.90
74384;DHT22;62824;52.994;-3.936;2022-11-24T01:59:45;8.80;99.90
74384;DHT22;62824;52.994;-3.936;2022-11-24T02:02:13;8.80;99.90
74384;DHT22;62824;52.994;-3.936;2022-11-24T02:04:39;8.90;99.90
74384;DHT22;62824;52.994;-3.936;2022-11-24T02:07:06;8.90;99.90
74384;DHT22;62824;52.994;-3.936;2022-11-24T02:09:44;8.80;99.90
74384;DHT22;62824;52.994;-3.936;2022-11-24T02:12:11;8.80;99.90
74384;DHT22;62824;52.994;-3.936;2022-11-24T02:14:37;8.70;99.90
74384;DHT22;62824;52.994;-3.936;2022-11-24T02:17:05;8.60;99.90
74384;DHT22;62824;52.994;-3.936;2022-11-24T02:22:03;8.60;99.90
74384;DHT22;62824;52.994;-3.936;2022-11-24T02:24:44;8.60;99.90
74384;DHT22;62824;52.994;-3.936;2022-11-24T02:30:34;8.60;99.90
74384;DHT22;62824;52.994;-3.936;2022-11-24T02:33:01;8.60;99.90
74384;DHT22;62824;52.994;-3.936;2022-11-24T02:35:28;8.60;99.90
74384;DHT22;62824;52.994;-3.936;2022-11-24T02:37:53;8.60;99.90
74384;DHT22;62824;52.994;-3.936;2022-11-24T02:40:21;8.60;99.90
74384;DHT22;62824;52.994;-3.936;2022-11-24T02:42:53;8.60;99.90
74384;DHT22;62824;52.994;-3.936;2022-11-24T02:45:20;8.60;99.90
74384;DHT22;62824;52.994;-3.936;2022-11-24T02:47:46;8.60;99.90
74384;DHT22;62824;52.994;-3.936;2022-11-24T02:50:11;8.60;99.90
74384;DHT22;62824;52.994;-3.936;2022-11-24T02:52:37;8.60;99.90
74384;DHT22;62824;52.994;-3.936;2022-11-24T02:55:04;8.60;99.90
74384;DHT22;62824;52.994;-3.936;2022-11-24T02:57:29;8.60;99.90
74384;DHT22;62824;52.994;-3.936;2022-11-24T02:59:55;8.60;99.90
74384;DHT22;62824;52.994;-3.936;2022-11-24T03:05:43;8.60;99.90
74384;DHT22;62824;52.994;-3.936;2022-11-24T03:08:08;8.60;99.70
74384;DHT22;62824;52.994;-3.936;2022-11-24T03:10:34;8.60;99.70
74384;DHT22;62824;52.994;-3.936;2022-11-24T03:13:00;8.60;99.90
74384;DHT22;62824;52.994;-3.936;2022-11-24T03:15:26;8.60;99.90
74384;DHT22;62824;52.994;-3.936;2022-11-24T03:17:54;8.60;99.90
74384;DHT22;62824;52.994;-3.936;2022-11-24T03:20:21;8.50;99.90
74384;DHT22;62824;52.994;-3.936;2022-11-24T03:22:47;8.50;99.90
74384;DHT22;62824;52.994;-3.936;2022-11-24T03:25:12;8.50;99.90
74384;DHT22;62824;52.994;-3.936;2022-11-24T03:27:38;8.40;99.90
74384;DHT22;62824;52.994;-3.936;2022-11-24T03:30:04;8.40;99.90
74384;DHT22;62824;52.994;-3.936;2022-11-24T03:32:30;8.40;99.90
74384;DHT22;62824;52.994;-3.936;2022-11-24T03:34:56;8.40;99.90
74384;DHT22;62824;52.994;-3.936;2022-11-24T03:37:21;8.40;99.90
74384;DHT22;62824;52.994;-3.936;2022-11-24T03:39:47;8.40;99.90
74384;DHT22;62824;52.994;-3.936;2022-11-24T03:42:14;8.40;99.90
74384;DHT22;62824;52.994;-3.936;2022-11-24T03:44:40;8.40;99.90
74384;DHT22;62824;52.994;-3.936;2022-11-24T03:47:05;8.40;99.90
74384;DHT22;62824;52.994;-3.936;2022-11-24T03:49:31;8.30;99.90
74384;DHT22;62824;52.994;-3.936;2022-11-24T03:51:57;8.30;99.90
74384;DHT22;62824;52.994;-3.936;2022-11-24T03:54:22;8.30;99.90
74384;DHT22;62824;52.994;-3.936;2022-11-24T03:56:48;8.30;99.90
74384;DHT22;62824;52.994;-3.936;2022-11-24T03:59:14;8.30;99.90
74384;DHT22;62824;52.994;-3.936;2022-11-24T04:01:40;8.40;99.90
74384;DHT22;62824;52.994;-3.936;2022-11-24T04:04:08;8.40;99.90
74384;DHT22;62824;52.994;-3.936;2022-11-24T04:06:34;8.40;99.90
74384;DHT22;62824;52.994;-3.936;2022-11-24T04:09:00;8.40;99.90
74384;DHT22;62824;52.994;-3.936;2022-11-24T04:11:25;8.40;99.90
74384;DHT22;62824;52.994;-3.936;2022-11-24T04:14:09;8.40;99.90
74384;DHT22;62824;52.994;-3.936;2022-11-24T04:16:36;8.40;99.90
74384;DHT22;62824;52.994;-3.936;2022-11-24T04:19:01;8.40;99.90
74384;DHT22;62824;52.994;-3.936;2022-11-24T04:21:27;8.30;99.90
74384;DHT22;62824;52.994;-3.936;2022-11-24T04:23:53;8.30;99.90
74384;DHT22;62824;52.994;-3.936;2022-11-24T04:26:18;8.20;99.90
74384;DHT22;62824;52.994;-3.936;2022-11-24T04:28:44;8.20;99.90
74384;DHT22;62824;52.994;-3.936;2022-11-24T04:31:10;8.30;99.90
74384;DHT22;62824;52.994;-3.936;2022-11-24T04:33:35;8.30;99.90
74384;DHT22;62824;52.994;-3.936;2022-11-24T04:36:01;8.30;99.90
74384;DHT22;62824;52.994;-3.936;2022-11-24T04:38:27;8.30;99.90
74384;DHT22;62824;52.994;-3.936;2022-11-24T04:40:53;8.30;99.90
74384;DHT22;62824;52.994;-3.936;2022-11-24T04:43:18;8.40;99.90
74384;DHT22;62824;52.994;-3.936;2022-11-24T04:45:46;8.40;99.90
74384;DHT22;62824;52.994;-3.936;2022-11-24T04:48:12;8.50;99.90
74384;DHT22;62824;52.994;-3.936;2022-11-24T04:50:37;8.50;99.90
74384;DHT22;62824;52.994;-3.936;2022-11-24T04:53:04;8.50;99.90
74384;DHT22;62824;52.994;-3.936;2022-11-24T04:55:30;8.50;99.90
74384;DHT22;62824;52.994;-3.936;2022-11-24T04:57:56;8.50;99.90
74384;DHT22;62824;52.994;-3.936;2022-11-24T05:00:22;8.50;99.90
74384;DHT22;62824;52.994;-3.936;2022-11-24T05:02:48;8.50;99.90
74384;DHT22;62824;52.994;-3.936;2022-11-24T05:05:14;8.50;99.90
74384;DHT22;62824;52.994;-3.936;2022-11-24T05:07:39;8.40;99.90
74384;DHT22;62824;52.994;-3.936;2022-11-24T05:10:05;8.40;99.90
74384;DHT22;62824;52.994;-3.936;2022-11-24T05:12:56;8.40;99.90
74384;DHT22;62824;52.994;-3.936;2022-11-24T05:15:24;8.40;99.90
74384;DHT22;62824;52.994;-3.936;2022-11-24T05:17:50;8.40;99.90
74384;DHT22;62824;52.994;-3.936;2022-11-24T05:20:16;8.40;99.90
74384;DHT22;62824;52.994;-3.936;2022-11-24T05:22:43;8.40;99.90
74384;DHT22;62824;52.994;-3.936;2022-11-24T05:25:09;8.40;99.90
74384;DHT22;62824;52.994;-3.936;2022-11-24T05:27:34;8.30;99.90
74384;DHT22;62824;52.994;-3.936;2022-11-24T05:30:00;8.30;99.90
74384;DHT22;62824;52.994;-3.936;2022-11-24T05:32:26;8.30;99.90
74384;DHT22;62824;52.994;-3.936;2022-11-24T05:34:52;8.20;99.90
74384;DHT22;62824;52.994;-3.936;2022-11-24T05:37:19;8.30;99.90
74384;DHT22;62824;52.994;-3.936;2022-11-24T05:39:45;8.30;99.90
74384;DHT22;62824;52.994;-3.936;2022-11-24T05:42:11;8.20;99.90
74384;DHT22;62824;52.994;-3.936;2022-11-24T05:44:55;8.30;99.90
74384;DHT22;62824;52.994;-3.936;2022-11-24T05:47:22;8.30;99.90
74384;DHT22;62824;52.994;-3.936;2022-11-24T05:49:48;8.30;99.90
74384;DHT22;62824;52.994;-3.936;2022-11-24T05:52:14;8.30;99.90
74384;DHT22;62824;52.994;-3.936;2022-11-24T05:54:40;8.30;99.90
74384;DHT22;62824;52.994;-3.936;2022-11-24T05:57:05;8.30;99.90
74384;DHT22;62824;52.994;-3.936;2022-11-24T05:59:31;8.40;99.90
74384;DHT22;62824;52.994;-3.936;2022-11-24T06:01:57;8.40;99.90
74384;DHT22;62824;52.994;-3.936;2022-11-24T06:04:23;8.40;99.90
74384;DHT22;62824;52.994;-3.936;2022-11-24T06:06:48;8.40;99.90
74384;DHT22;62824;52.994;-3.936;2022-11-24T06:09:15;8.50;99.90
74384;DHT22;62824;52.994;-3.936;2022-11-24T06:11:41;8.50;99.90
74384;DHT22;62824;52.994;-3.936;2022-11-24T06:14:09;8.50;99.90
74384;DHT22;62824;52.994;-3.936;2022-11-24T06:16:35;8.50;99.90
74384;DHT22;62824;52.994;-3.936;2022-11-24T06:19:01;8.60;99.90
74384;DHT22;62824;52.994;-3.936;2022-11-24T06:21:27;8.60;99.90
74384;DHT22;62824;52.994;-3.936;2022-11-24T06:23:52;8.70;99.90
74384;DHT22;62824;52.994;-3.936;2022-11-24T06:26:18;8.70;99.90
74384;DHT22;62824;52.994;-3.936;2022-11-24T06:28:44;8.70;99.90
74384;DHT22;62824;52.994;-3.936;2022-11-24T06:31:10;8.70;99.90
74384;DHT22;62824;52.994;-3.936;2022-11-24T06:33:37;8.80;99.90
74384;DHT22;62824;52.994;-3.936;2022-11-24T06:36:07;8.80;99.90
74384;DHT22;62824;52.994;-3.936;2022-11-24T06:38:34;8.80;99.90
74384;DHT22;62824;52.994;-3.936;2022-11-24T06:41:08;8.90;99.90
74384;DHT22;62824;52.994;-3.936;2022-11-24T06:43:35;8.90;99.90
74384;DHT22;62824;52.994;-3.936;2022-11-24T06:46:02;8.90;99.90
74384;DHT22;62824;52.994;-3.936;2022-11-24T06:48:28;8.90;99.90
74384;DHT22;62824;52.994;-3.936;2022-11-24T06:50:58;9.00;99.90
74384;DHT22;62824;52.994;-3.936;2022-11-24T06:53:25;9.00;99.90
74384;DHT22;62824;52.994;-3.936;2022-11-24T06:55:51;9.00;99.90
74384;DHT22;62824;52.994;-3.936;2022-11-24T06:58:17;9.00;99.90
74384;DHT22;62824;52.994;-3.936;2022-11-24T07:00:43;9.10;99.90
74384;DHT22;62824;52.994;-3.936;2022-11-24T07:03:14;9.10;99.90
74384;DHT22;62824;52.994;-3.936;2022-11-24T07:05:40;9.10;99.90
74384;DHT22;62824;52.994;-3.936;2022-11-24T07:08:06;9.10;99.90
74384;DHT22;62824;52.994;-3.936;2022-11-24T07:10:32;9.10;99.90
74384;DHT22;62824;52.994;-3.936;2022-11-24T07:12:58;9.10;99.90
74384;DHT22;62824;52.994;-3.936;2022-11-24T07:15:24;9.10;99.90
74384;DHT22;62824;52.994;-3.936;2022-11-24T07:17:49;9.10;99.90
74384;DHT22;62824;52.994;-3.936;2022-11-24T07:20:15;9.10;99.90
74384;DHT22;62824;52.994;-3.936;2022-11-24T07:22:41;9.10;99.90
74384;DHT22;62824;52.994;-3.936;2022-11-24T07:25:07;9.10;99.90
74384;DHT22;62824;52.994;-3.936;2022-11-24T07:27:35;9.10;99.90
74384;DHT22;62824;52.994;-3.936;2022-11-24T07:30:01;9.10;99.90
74384;DHT22;62824;52.994;-3.936;2022-11-24T07:32:28;9.10;99.90
74384;DHT22;62824;52.994;-3.936;2022-11-24T07:34:54;9.10;99.90
74384;DHT22;62824;52.994;-3.936;2022-11-24T07:37:19;9.20;99.90
74384;DHT22;62824;52.994;-3.936;2022-11-24T07:39:45;9.20;99.90
74384;DHT22;62824;52.994;-3.936;2022-11-24T07:42:11;9.20;99.90
74384;DHT22;62824;52.994;-3.936;2022-11-24T07:44:37;9.20;99.90
74384;DHT22;62824;52.994;-3.936;2022-11-24T07:47:03;9.30;99.90
74384;DHT22;62824;52.994;-3.936;2022-11-24T07:49:28;9.30;99.90
74384;DHT22;62824;52.994;-3.936;2022-11-24T07:51:54;9.30;99.90
74384;DHT22;62824;52.994;-3.936;2022-11-24T07:54:20;9.30;99.90
74384;DHT22;62824;52.994;-3.936;2022-11-24T07:56:48;9.20;99.90
74384;DHT22;62824;52.994;-3.936;2022-11-24T07:59:14;9.20;99.90
74384;DHT22;62824;52.994;-3.936;2022-11-24T08:01:40;9.20;99.90
74384;DHT22;62824;52.994;-3.936;2022-11-24T08:04:05;9.20;99.90
74384;DHT22;62824;52.994;-3.936;2022-11-24T08:06:31;9.20;99.90
74384;DHT22;62824;52.994;-3.936;2022-11-24T08:08:57;9.30;99.90
74384;DHT22;62824;52.994;-3.936;2022-11-24T08:11:24;9.30;99.90
74384;DHT22;62824;52.994;-3.936;2022-11-24T08:13:49;9.30;99.90
74384;DHT22;62824;52.994;-3.936;2022-11-24T08:16:17;9.30;99.90
74384;DHT22;62824;52.994;-3.936;2022-11-24T08:18:47;9.30;99.90
74384;DHT22;62824;52.994;-3.936;2022-11-24T08:21:13;9.40;99.90
74384;DHT22;62824;52.994;-3.936;2022-11-24T08:23:40;9.50;99.90
74384;DHT22;62824;52.994;-3.936;2022-11-24T08:26:08;9.50;99.90
74384;DHT22;62824;52.994;-3.936;2022-11-24T08:28:35;9.50;99.90
74384;DHT22;62824;52.994;-3.936;2022-11-24T08:31:09;9.40;99.90
74384;DHT22;62824;52.994;-3.936;2022-11-24T08:33:35;9.40;99.90
74384;DHT22;62824;52.994;-3.936;2022-11-24T08:36:06;9.40;99.90
74384;DHT22;62824;52.994;-3.936;2022-11-24T08:38:32;9.40;99.90
74384;DHT22;62824;52.994;-3.936;2022-11-24T08:41:00;9.50;99.90
74384;DHT22;62824;52.994;-3.936;2022-11-24T08:43:26;9.40;99.90
74384;DHT22;62824;52.994;-3.936;2022-11-24T08:45:52;9.40;99.90
74384;DHT22;62824;52.994;-3.936;2022-11-24T08:48:18;9.40;99.90
74384;DHT22;62824;52.994;-3.936;2022-11-24T08:50:43;9.40;99.90
74384;DHT22;62824;52.994;-3.936;2022-11-24T08:53:09;9.50;99.90
74384;DHT22;62824;52.994;-3.936;2022-11-24T08:55:35;9.50;99.90
74384;DHT22;62824;52.994;-3.936;2022-11-24T08:58:00;9.50;99.90
74384;DHT22;62824;52.994;-3.936;2022-11-24T09:00:26;9.50;99.90
74384;DHT22;62824;52.994;-3.936;2022-11-24T09:02:56;9.50;99.90
74384;DHT22;62824;52.994;-3.936;2022-11-24T09:05:22;9.60;99.90
74384;DHT22;62824;52.994;-3.936;2022-11-24T09:07:48;9.60;99.90
74384;DHT22;62824;52.994;-3.936;2022-11-24T09:10:14;9.60;99.90
74384;DHT22;62824;52.994;-3.936;2022-11-24T09:12:40;9.60;99.90
74384;DHT22;62824;52.994;-3.936;2022-11-24T09:15:05;9.70;99.90
74384;DHT22;62824;52.994;-3.936;2022-11-24T09:17:32;9.70;99.90
74384;DHT22;62824;52.994;-3.936;2022-11-24T09:19:58;9.70;99.90
74384;DHT22;62824;52.994;-3.936;2022-11-24T09:22:23;9.70;99.90
74384;DHT22;62824;52.994;-3.936;2022-11-24T09:24:49;9.70;99.90
74384;DHT22;62824;52.994;-3.936;2022-11-24T09:27:15;9.70;99.90
74384;DHT22;62824;52.994;-3.936;2022-11-24T09:29:41;9.70;99.90
74384;DHT22;62824;52.994;-3.936;2022-11-24T09:32:06;9.70;99.90
74384;DHT22;62824;52.994;-3.936;2022-11-24T09:34:32;9.70;99.90
74384;DHT22;62824;52.994;-3.936;2022-11-24T09:36:58;9.70;99.90
74384;DHT22;62824;52.994;-3.936;2022-11-24T09:39:23;9.70;99.90
74384;DHT22;62824;52.994;-3.936;2022-11-24T09:47:42;9.80;99.90
74384;DHT22;62824;52.994;-3.936;2022-11-24T09:50:20;9.80;99.90
74384;DHT22;62824;52.994;-3.936;2022-11-24T09:52:57;9.90;99.90
74384;DHT22;62824;52.994;-3.936;2022-11-24T10:00:41;10.00;99.90
74384;DHT22;62824;52.994;-3.936;2022-11-24T10:05:50;10.10;99.90
74384;DHT22;62824;52.994;-3.936;2022-11-24T10:11:12;10.30;99.90
74384;DHT22;62824;52.994;-3.936;2022-11-24T10:16:32;10.30;99.90
74384;DHT22;62824;52.994;-3.936;2022-11-24T10:27:33;10.50;99.90
74384;DHT22;62824;52.994;-3.936;2022-11-24T10:30:00;10.50;99.90
74384;DHT22;62824;52.994;-3.936;2022-11-24T10:32:31;10.50;99.90
74384;DHT22;62824;52.994;-3.936;2022-11-24T10:35:19;10.50;99.90
74384;DHT22;62824;52.994;-3.936;2022-11-24T10:38:00;10.40;99.90
74384;DHT22;62824;52.994;-3.936;2022-11-24T10:43:02;10.40;99.90
74384;DHT22;62824;52.994;-3.936;2022-11-24T10:45:35;10.40;99.90
74384;DHT22;62824;52.994;-3.936;2022-11-24T10:48:03;10.40;99.90
74384;DHT22;62824;52.994;-3.936;2022-11-24T10:50:36;10.40;99.90
74384;DHT22;62824;52.994;-3.936;2022-11-24T10:53:25;10.40;99.90
74384;DHT22;62824;52.994;-3.936;2022-11-24T10:58:25;10.30;99.90
74384;DHT22;62824;52.994;-3.936;2022-11-24T11:00:55;10.20;99.90
74384;DHT22;62824;52.994;-3.936;2022-11-24T11:03:23;10.20;99.90
74384;DHT22;62824;52.994;-3.936;2022-11-24T11:08:31;10.00;99.90
74384;DHT22;62824;52.994;-3.936;2022-11-24T11:13:57;9.90;99.90
74384;DHT22;62824;52.994;-3.936;2022-11-24T11:16:25;9.90;99.90
74384;DHT22;62824;52.994;-3.936;2022-11-24T11:18:51;9.80;99.90
74384;DHT22;62824;52.994;-3.936;2022-11-24T11:21:29;9.80;99.90
74384;DHT22;62824;52.994;-3.936;2022-11-24T11:23:56;9.80;99.90
74384;DHT22;62824;52.994;-3.936;2022-11-24T11:31:34;9.80;99.90
74384;DHT22;62824;52.994;-3.936;2022-11-24T11:36:50;9.70;99.90
74384;DHT22;62824;52.994;-3.936;2022-11-24T11:42:41;9.40;99.90
74384;DHT22;62824;52.994;-3.936;2022-11-24T11:47:49;8.50;99.90
74384;DHT22;62824;52.994;-3.936;2022-11-24T11:50:26;8.40;99.90
74384;DHT22;62824;52.994;-3.936;2022-11-24T11:53:15;8.40;99.90
74384;DHT22;62824;52.994;-3.936;2022-11-24T11:58:48;8.40;99.90
74384;DHT22;62824;52.994;-3.936;2022-11-24T12:15:45;8.60;99.90
74384;DHT22;62824;52.994;-3.936;2022-11-24T12:40:43;9.00;99.90
74384;DHT22;62824;52.994;-3.936;2022-11-24T12:51:00;9.00;99.90
74384;DHT22;62824;52.994;-3.936;2022-11-24T12:53:33;9.10;99.90
74384;DHT22;62824;52.994;-3.936;2022-11-24T12:56:10;9.10;99.90
74384;DHT22;62824;52.994;-3.936;2022-11-24T12:58:57;9.20;99.90
74384;DHT22;62824;52.994;-3.936;2022-11-24T13:01:37;9.20;99.90
74384;DHT22;62824;52.994;-3.936;2022-11-24T13:04:40;9.20;99.90
74384;DHT22;62824;52.994;-3.936;2022-11-24T13:07:09;9.30;99.90
74384;DHT22;62824;52.994;-3.936;2022-11-24T13:09:37;9.30;99.90
74384;DHT22;62824;52.994;-3.936;2022-11-24T13:12:15;9.30;99.90
74384;DHT22;62824;52.994;-3.936;2022-11-24T13:14:42;9.40;99.90
74384;DHT22;62824;52.994;-3.936;2022-11-24T13:17:30;9.40;99.90
74384;DHT22;62824;52.994;-3.936;2022-11-24T13:22:59;9.60;99.90
74384;DHT22;62824;52.994;-3.936;2022-11-24T13:25:37;9.60;99.90
74384;DHT22;62824;52.994;-3.936;2022-11-24T13:28:04;9.60;99.90
74384;DHT22;62824;52.994;-3.936;2022-11-24T13:35:39;9.70;99.90
74384;DHT22;62824;52.994;-3.936;2022-11-24T13:47:27;10.00;99.90
74384;DHT22;62824;52.994;-3.936;2022-11-24T13:49:51;10.10;99.90
74384;DHT22;62824;52.994;-3.936;2022-11-24T13:57:45;10.40;99.90
74384;DHT22;62824;52.994;-3.936;2022-11-24T14:00:22;10.30;99.90
74384;DHT22;62824;52.994;-3.936;2022-11-24T14:02:49;10.40;99.90
74384;DHT22;62824;52.994;-3.936;2022-11-24T14:05:18;10.40;99.90
74384;DHT22;62824;52.994;-3.936;2022-11-24T14:07:47;10.40;99.90
74384;DHT22;62824;52.994;-3.936;2022-11-24T14:10:21;10.30;99.90
74384;DHT22;62824;52.994;-3.936;2022-11-24T14:18:35;10.20;99.90
74384;DHT22;62824;52.994;-3.936;2022-11-24T14:21:27;10.10;99.90
74384;DHT22;62824;52.994;-3.936;2022-11-24T14:24:00;10.00;99.90
74384;DHT22;62824;52.994;-3.936;2022-11-24T14:26:32;10.00;99.90
74384;DHT22;62824;52.994;-3.936;2022-11-24T14:29:16;10.00;99.90
74384;DHT22;62824;52.994;-3.936;2022-11-24T14:31:56;9.90;99.90
74384;DHT22;62824;52.994;-3.936;2022-11-24T14:34:25;9.90;99.90
74384;DHT22;62824;52.994;-3.936;2022-11-24T14:36:52;9.80;99.90
74384;DHT22;62824;52.994;-3.936;2022-11-24T14:39:23;9.80;99.90
74384;DHT22;62824;52.994;-3.936;2022-11-24T14:42:17;9.80;99.90
74384;DHT22;62824;52.994;-3.936;2022-11-24T14:44:58;9.50;99.90
74384;DHT22;62824;52.994;-3.936;2022-11-24T14:47:36;9.20;99.90
74384;DHT22;62824;52.994;-3.936;2022-11-24T14:50:15;9.10;99.90
74384;DHT22;62824;52.994;-3.936;2022-11-24T14:52:53;9.10;99.90
74384;DHT22;62824;52.994;-3.936;2022-11-24T14:58:49;9.10;99.90
74384;DHT22;62824;52.994;-3.936;2022-11-24T15:04:18;8.90;99.90
74384;DHT22;62824;52.994;-3.936;2022-11-24T15:10:20;8.50;99.90
74384;DHT22;62824;52.994;-3.936;2022-11-24T15:12:53;8.40;99.90
74384;DHT22;62824;52.994;-3.936;2022-11-24T15:15:26;8.30;99.90
74384;DHT22;62824;52.994;-3.936;2022-11-24T15:17:58;8.20;99.90
74384;DHT22;62824;52.994;-3.936;2022-11-24T15:25:50;8.30;99.90
74384;DHT22;62824;52.994;-3.936;2022-11-24T15:28:16;8.40;99.90
74384;DHT22;62824;52.994;-3.936;2022-11-24T15:30:42;8.40;99.90
74384;DHT22;62824;52.994;-3.936;2022-11-24T15:33:16;8.20;99.90
74384;DHT22;62824;52.994;-3.936;2022-11-24T15:35:43;8.30;99.90
74384;DHT22;62824;52.994;-3.936;2022-11-24T15:38:09;8.40;99.90
74384;DHT22;62824;52.994;-3.936;2022-11-24T15:40:36;8.50;99.90
74384;DHT22;62824;52.994;-3.936;2022-11-24T15:45:40;8.50;99.90
74384;DHT22;62824;52.994;-3.936;2022-11-24T15:48:06;8.60;99.90
74384;DHT22;62824;52.994;-3.936;2022-11-24T15:50:31;8.60;99.90
74384;DHT22;62824;52.994;-3.936;2022-11-24T15:52:57;8.60;99.90
74384;DHT22;62824;52.994;-3.936;2022-11-24T15:55:23;8.60;99.90
74384;DHT22;62824;52.994;-3.936;2022-11-24T15:57:49;8.70;99.90
74384;DHT22;62824;52.994;-3.936;2022-11-24T16:00:20;8.60;99.90
74384;DHT22;62824;52.994;-3.936;2022-11-24T16:02:47;8.60;99.90
74384;DHT22;62824;52.994;-3.936;2022-11-24T16:05:13;8.60;99.90
74384;DHT22;62824;52.994;-3.936;2022-11-24T16:07:39;8.60;99.90
74384;DHT22;62824;52.994;-3.936;2022-11-24T16:10:09;8.60;99.90
74384;DHT22;62824;52.994;-3.936;2022-11-24T16:12:37;8.70;99.90
74384;DHT22;62824;52.994;-3.936;2022-11-24T16:15:03;8.60;99.90
74384;DHT22;62824;52.994;-3.936;2022-11-24T16:17:29;8.70;99.90
74384;DHT22;62824;52.994;-3.936;2022-11-24T16:19:55;8.60;99.90
74384;DHT22;62824;52.994;-3.936;2022-11-24T16:22:21;8.60;99.90
74384;DHT22;62824;52.994;-3.936;2022-11-24T16:24:46;8.70;99.90
74384;DHT22;62824;52.994;-3.936;2022-11-24T16:27:12;8.60;99.90
74384;DHT22;62824;52.994;-3.936;2022-11-24T16:29:38;8.70;99.90
74384;DHT22;62824;52.994;-3.936;2022-11-24T16:32:04;8.70;99.90
74384;DHT22;62824;52.994;-3.936;2022-11-24T16:34:29;8.70;99.90
74384;DHT22;62824;52.994;-3.936;2022-11-24T16:36:55;8.70;99.90
74384;DHT22;62824;52.994;-3.936;2022-11-24T16:39:21;8.70;99.90
74384;DHT22;62824;52.994;-3.936;2022-11-24T16:42:11;8.60;99.90
74384;DHT22;62824;52.994;-3.936;2022-11-24T16:44:37;8.60;99.90
74384;DHT22;62824;52.994;-3.936;2022-11-24T16:47:03;8.60;99.90
74384;DHT22;62824;52.994;-3.936;2022-11-24T16:49:29;8.60;99.90
74384;DHT22;62824;52.994;-3.936;2022-11-24T16:51:54;8.50;99.90
74384;DHT22;62824;52.994;-3.936;2022-11-24T16:54:20;8.50;99.90
74384;DHT22;62824;52.994;-3.936;2022-11-24T16:56:46;8.50;99.90
74384;DHT22;62824;52.994;-3.936;2022-11-24T16:59:12;8.50;99.90
74384;DHT22;62824;52.994;-3.936;2022-11-24T17:01:37;8.50;99.90
74384;DHT22;62824;52.994;-3.936;2022-11-24T17:04:06;8.40;99.90
74384;DHT22;62824;52.994;-3.936;2022-11-24T17:06:32;8.40;99.90
74384;DHT22;62824;52.994;-3.936;2022-11-24T17:08:58;8.40;99.90
74384;DHT22;62824;52.994;-3.936;2022-11-24T17:11:26;8.40;99.90
74384;DHT22;62824;52.994;-3.936;2022-11-24T17:13:52;8.50;99.90
74384;DHT22;62824;52.994;-3.936;2022-11-24T17:16:20;8.50;99.90
74384;DHT22;62824;52.994;-3.936;2022-11-24T17:18:47;8.50;99.90
74384;DHT22;62824;52.994;-3.936;2022-11-24T17:21:20;8.60;99.90
74384;DHT22;62824;52.994;-3.936;2022-11-24T17:23:46;8.60;99.90
74384;DHT22;62824;52.994;-3.936;2022-11-24T17:26:14;8.30;99.90
74384;DHT22;62824;52.994;-3.936;2022-11-24T17:28:40;8.00;99.90
74384;DHT22;62824;52.994;-3.936;2022-11-24T17:31:20;7.60;99.90
74384;DHT22;62824;52.994;-3.936;2022-11-24T17:33:47;7.50;99.90
74384;DHT22;62824;52.994;-3.936;2022-11-24T17:36:13;7.40;99.90
74384;DHT22;62824;52.994;-3.936;2022-11-24T17:38:39;7.40;99.90
74384;DHT22;62824;52.994;-3.936;2022-11-24T17:41:05;7.40;99.90
74384;DHT22;62824;52.994;-3.936;2022-11-24T17:43:31;7.40;99.90
74384;DHT22;62824;52.994;-3.936;2022-11-24T17:46:00;7.50;99.90
74384;DHT22;62824;52.994;-3.936;2022-11-24T17:48:27;7.50;99.90
74384;DHT22;62824;52.994;-3.936;2022-11-24T17:51:08;7.50;99.90
74384;DHT22;62824;52.994;-3.936;2022-11-24T17:53:39;7.60;99.90
74384;DHT22;62824;52.994;-3.936;2022-11-24T17:56:06;7.60;99.90
74384;DHT22;62824;52.994;-3.936;2022-11-24T17:58:34;7.70;99.90
74384;DHT22;62824;52.994;-3.936;2022-11-24T18:01:00;7.70;99.90
74384;DHT22;62824;52.994;-3.936;2022-11-24T18:03:27;7.70;99.90
74384;DHT22;62824;52.994;-3.936;2022-11-24T18:06:06;7.70;99.90
74384;DHT22;62824;52.994;-3.936;2022-11-24T18:08:33;7.60;99.90
74384;DHT22;62824;52.994;-3.936;2022-11-24T18:11:08;7.60;99.90
74384;DHT22;62824;52.994;-3.936;2022-11-24T18:13:35;7.60;99.90
74384;DHT22;62824;52.994;-3.936;2022-11-24T18:16:02;7.50;99.90